createdAt,value
2017-10-16T00:00:23.923Z,89.66
2017-10-16T00:02:51.835Z,89.71
2017-10-16T00:05:19.757Z,89.77
2017-10-16T00:07:47.666Z,89.84
2017-10-16T00:10:15.595Z,89.99
2017-10-16T00:12:43.605Z,90.11
2017-10-16T00:15:11.586Z,89.84
2017-10-16T00:17:39.502Z,89.66
2017-10-16T00:20:07.524Z,89.90
2017-10-16T00:22:35.553Z,90.42
2017-10-16T00:25:03.473Z,90.11
2017-10-16T00:27:31.392Z,90.24
2017-10-16T00:29:59.394Z,90.34
2017-10-16T00:32:27.326Z,90.35
2017-10-16T00:34:55.297Z,90.29
2017-10-16T00:37:23.221Z,90.18
2017-10-16T00:39:51.529Z,90.14
2017-10-16T00:42:19.448Z,90.36
2017-10-16T00:44:47.360Z,89.95
2017-10-16T00:47:15.269Z,90.07
2017-10-16T00:49:43.209Z,90.11
2017-10-16T00:52:11.241Z,90.29
2017-10-16T00:54:39.535Z,90.13
2017-10-16T00:57:07.568Z,89.90
2017-10-16T00:59:35.472Z,89.93
2017-10-16T01:02:03.711Z,89.74
2017-10-16T01:04:31.648Z,89.78
2017-10-16T01:06:59.564Z,89.97
2017-10-16T01:09:27.874Z,90.22
2017-10-16T01:11:56.724Z,90.10
2017-10-16T01:14:24.620Z,90.18
2017-10-16T01:16:52.601Z,90.43
2017-10-16T01:19:20.519Z,90.32
2017-10-16T01:21:48.431Z,90.42
2017-10-16T01:24:16.331Z,90.65
2017-10-16T01:26:44.256Z,90.76
2017-10-16T01:29:12.555Z,90.66
2017-10-16T01:31:40.463Z,90.18
2017-10-16T01:34:08.388Z,90.52
2017-10-16T01:36:36.291Z,90.43
2017-10-16T01:39:04.883Z,90.30
2017-10-16T01:41:32.815Z,91.03
2017-10-16T01:44:00.741Z,90.94
2017-10-16T01:46:28.645Z,90.48
2017-10-16T01:48:56.889Z,90.61
2017-10-16T01:51:24.884Z,90.89
2017-10-16T01:53:52.831Z,90.95
2017-10-16T01:56:20.765Z,91.03
2017-10-16T01:58:48.677Z,91.17
2017-10-16T02:01:16.637Z,90.73
2017-10-16T02:03:44.988Z,91.30
2017-10-16T02:06:13.050Z,91.18
2017-10-16T02:08:40.952Z,90.93
2017-10-16T02:11:09.292Z,91.23
2017-10-16T02:13:37.215Z,91.27
2017-10-16T02:16:05.128Z,91.55
2017-10-16T02:18:33.062Z,91.10
2017-10-16T02:21:00.960Z,91.18
2017-10-16T02:23:28.869Z,91.66
2017-10-16T02:25:57.192Z,91.21
2017-10-16T02:28:25.190Z,91.64
2017-10-16T02:30:53.103Z,91.55
2017-10-16T02:33:21.119Z,91.21
2017-10-16T02:35:49.054Z,91.27
2017-10-16T02:38:17.062Z,91.69
2017-10-16T02:40:45.048Z,91.44
2017-10-16T02:43:13.377Z,91.79
2017-10-16T02:45:41.368Z,91.88
2017-10-16T02:48:09.292Z,92.11
2017-10-16T02:50:37.212Z,91.74
2017-10-16T02:53:05.189Z,91.92
2017-10-16T02:55:33.108Z,92.19
2017-10-16T02:58:01.138Z,91.91
2017-10-16T03:00:29.504Z,92.29
2017-10-16T03:02:57.825Z,92.30
2017-10-16T03:05:25.852Z,92.81
2017-10-16T03:07:53.756Z,92.41
2017-10-16T03:10:21.682Z,92.33
2017-10-16T03:12:49.586Z,92.13
2017-10-16T03:15:17.576Z,92.36
2017-10-16T03:17:45.585Z,92.47
2017-10-16T03:20:13.536Z,92.58
2017-10-16T03:22:41.439Z,92.14
2017-10-16T03:25:09.348Z,92.30
2017-10-16T03:27:37.265Z,92.60
2017-10-16T04:15:57.588Z,94.83
2017-10-16T04:18:25.887Z,94.68
2017-10-16T04:20:53.800Z,94.57
2017-10-16T04:23:21.712Z,94.86
2017-10-16T04:25:49.629Z,94.50
2017-10-16T04:28:17.535Z,94.35
2017-10-16T04:30:45.993Z,93.89
2017-10-16T04:33:14.005Z,93.49
2017-10-16T04:35:42.064Z,93.54
2017-10-16T04:38:09.976Z,93.23
2017-10-16T04:40:37.968Z,93.35
2017-10-16T04:43:05.881Z,93.33
2017-10-16T04:45:33.790Z,93.33
2017-10-16T04:48:01.700Z,93.14
2017-10-16T04:50:29.652Z,93.26
2017-10-16T04:52:57.608Z,92.52
2017-10-16T04:55:25.582Z,92.35
2017-10-16T04:57:53.594Z,92.45
2017-10-16T05:00:21.496Z,92.53
2017-10-16T05:02:49.429Z,92.96
2017-10-16T05:05:17.336Z,93.29
2017-10-16T05:07:45.419Z,93.45
2017-10-16T05:10:13.439Z,93.72
2017-10-16T05:12:41.449Z,93.66
2017-10-16T05:15:09.393Z,93.46
2017-10-16T05:17:37.319Z,92.94
2017-10-16T05:20:05.613Z,92.80
2017-10-16T05:22:33.566Z,92.91
2017-10-16T05:25:01.868Z,93.24
2017-10-16T05:27:29.789Z,92.84
2017-10-16T05:29:57.687Z,92.86
2017-10-16T05:32:25.646Z,92.64
2017-10-16T05:34:53.984Z,92.39
2017-10-16T05:37:21.899Z,92.84
2017-10-16T05:39:50.226Z,92.81
2017-10-16T05:42:18.140Z,92.43
2017-10-16T05:44:46.439Z,92.46
2017-10-16T05:47:14.355Z,92.60
2017-10-16T05:49:42.265Z,92.30
2017-10-16T05:52:10.171Z,92.14
2017-10-16T05:54:38.086Z,92.20
2017-10-16T05:57:06.014Z,92.09
2017-10-16T05:59:34.349Z,92.18
2017-10-16T06:02:02.272Z,92.09
2017-10-16T06:04:30.178Z,92.22
2017-10-16T06:06:58.107Z,92.13
2017-10-16T06:09:26.080Z,94.14
2017-10-16T06:11:54.048Z,91.92
2017-10-16T06:14:21.951Z,87.14
2017-10-16T06:16:49.865Z,82.41
2017-10-16T06:19:17.763Z,81.01
2017-10-16T06:21:45.675Z,78.16
2017-10-16T06:24:13.580Z,75.30
2017-10-16T06:26:41.547Z,74.18
2017-10-16T06:29:09.460Z,70.63
2017-10-16T06:31:37.387Z,66.71
2017-10-16T06:34:05.298Z,65.10
2017-10-16T06:36:33.315Z,63.32
2017-10-16T06:39:01.247Z,61.58
2017-10-16T06:41:29.276Z,59.13
2017-10-16T06:43:57.184Z,54.77
2017-10-16T06:46:25.096Z,54.40
2017-10-16T06:48:53.054Z,51.35
2017-10-16T06:51:21.031Z,49.43
2017-10-16T06:53:48.942Z,47.94
2017-10-16T06:56:16.866Z,45.50
2017-10-16T06:58:44.880Z,43.55
2017-10-16T07:01:12.804Z,43.19
2017-10-16T07:03:40.709Z,42.96
2017-10-16T07:06:09.067Z,41.79
2017-10-16T07:08:36.980Z,40.26
2017-10-16T07:11:05.008Z,38.36
2017-10-16T07:13:32.916Z,36.65
2017-10-16T07:16:00.921Z,36.58
2017-10-16T07:18:28.851Z,34.85
2017-10-16T07:20:56.870Z,33.90
2017-10-16T07:23:24.786Z,33.94
2017-10-16T07:25:52.809Z,32.82
2017-10-16T07:28:21.137Z,32.37
2017-10-16T07:30:49.074Z,31.03
2017-10-16T07:33:17.445Z,30.58
2017-10-16T07:35:45.456Z,29.97
2017-10-16T07:38:13.364Z,29.15
2017-10-16T07:40:41.292Z,28.59
2017-10-16T07:43:09.218Z,27.98
2017-10-16T07:45:37.547Z,27.54
2017-10-16T07:48:05.548Z,27.66
2017-10-16T07:50:33.575Z,27.25
2017-10-16T07:53:01.490Z,26.62
2017-10-16T07:55:29.552Z,26.34
2017-10-16T07:57:57.493Z,25.97
2017-10-16T08:00:25.605Z,25.43
2017-10-16T08:02:53.520Z,25.19
2017-10-16T08:05:21.468Z,24.33
2017-10-16T08:07:49.805Z,24.43
2017-10-16T08:10:17.778Z,23.95
2017-10-16T08:12:46.183Z,23.65
2017-10-16T08:15:14.532Z,23.25
2017-10-16T08:17:42.461Z,22.71
2017-10-16T08:20:10.372Z,22.99
2017-10-16T08:22:38.340Z,23.61
2017-10-16T08:25:06.265Z,23.09
2017-10-16T08:27:34.173Z,22.68
2017-10-16T08:30:02.569Z,22.32
2017-10-16T08:32:30.945Z,23.33
2017-10-16T08:34:59.268Z,22.63
2017-10-16T08:37:27.188Z,23.28
2017-10-16T08:39:55.106Z,22.29
2017-10-16T08:42:24.231Z,22.76
2017-10-16T08:44:52.160Z,23.12
2017-10-16T08:47:20.188Z,23.30
2017-10-16T08:49:48.108Z,23.08
2017-10-16T08:52:16.024Z,22.75
2017-10-16T08:54:43.948Z,23.26
2017-10-16T08:57:12.229Z,22.83
2017-10-16T08:59:40.133Z,23.38
2017-10-16T09:02:08.052Z,23.23
2017-10-16T09:04:35.961Z,24.26
2017-10-16T09:07:03.880Z,23.71
2017-10-16T09:09:31.807Z,23.41
2017-10-16T09:11:59.735Z,23.51
2017-10-16T09:14:27.641Z,23.70
2017-10-16T09:16:55.628Z,23.45
2017-10-16T09:19:23.954Z,23.97
2017-10-16T09:21:51.959Z,23.48
2017-10-16T09:24:19.899Z,23.07
2017-10-16T09:26:47.892Z,22.11
2017-10-16T09:29:15.803Z,22.11
2017-10-16T09:31:43.747Z,24.14
2017-10-16T09:34:12.081Z,22.85
2017-10-16T09:36:40.022Z,22.77
2017-10-16T09:39:07.933Z,23.34
2017-10-16T09:41:35.866Z,22.86
2017-10-16T09:44:03.889Z,24.54
2017-10-16T09:46:31.851Z,25.74
2017-10-16T09:48:59.760Z,26.98
2017-10-16T09:51:27.680Z,27.53
2017-10-16T09:53:55.652Z,26.94
2017-10-16T09:56:23.568Z,27.06
2017-10-16T09:58:51.492Z,27.08
2017-10-16T10:01:19.409Z,26.10
2017-10-16T10:03:47.324Z,27.06
2017-10-16T10:06:15.252Z,26.29
2017-10-16T10:08:43.177Z,26.28
2017-10-16T10:11:11.095Z,25.95
2017-10-16T10:13:39.052Z,28.06
2017-10-16T10:16:06.976Z,29.92
2017-10-16T10:18:34.885Z,29.10
2017-10-16T10:21:02.807Z,27.63
2017-10-16T10:23:30.710Z,28.17
2017-10-16T10:25:58.627Z,28.11
2017-10-16T10:28:26.535Z,28.07
2017-10-16T10:30:54.850Z,28.50
2017-10-16T10:33:22.771Z,29.76
2017-10-16T10:35:51.099Z,29.46
2017-10-16T10:38:19.105Z,31.02
2017-10-16T10:40:47.069Z,32.33
2017-10-16T10:43:14.967Z,34.14
2017-10-16T10:45:43.303Z,34.44
2017-10-16T10:48:11.233Z,35.93
2017-10-16T10:50:39.144Z,36.70
2017-10-16T10:53:07.071Z,35.75
2017-10-16T10:55:34.992Z,35.20
2017-10-16T10:58:03.049Z,35.65
2017-10-16T11:00:30.976Z,35.82
2017-10-16T11:02:59.001Z,37.96
2017-10-16T11:05:26.937Z,40.18
2017-10-16T11:07:54.853Z,42.26
2017-10-16T11:10:23.172Z,44.73
2017-10-16T11:12:51.184Z,46.45
2017-10-16T11:15:19.151Z,47.78
2017-10-16T11:17:47.060Z,48.19
2017-10-16T11:20:15.105Z,49.51
2017-10-16T11:22:43.413Z,50.04
2017-10-16T11:25:11.380Z,51.24
2017-10-16T11:27:39.292Z,51.84
2017-10-16T11:30:07.220Z,52.18
2017-10-16T11:32:35.128Z,52.27
2017-10-16T11:35:03.061Z,52.21
2017-10-16T11:37:31.065Z,52.45
2017-10-16T11:39:58.989Z,52.17
2017-10-16T11:42:26.914Z,52.30
2017-10-16T11:44:54.874Z,52.42
2017-10-16T11:47:22.794Z,52.42
2017-10-16T11:49:50.704Z,52.96
2017-10-16T11:52:18.630Z,52.91
2017-10-16T11:54:46.532Z,52.95
2017-10-16T11:57:14.509Z,53.20
2017-10-16T11:59:42.430Z,53.33
2017-10-16T12:02:10.344Z,53.15
2017-10-16T12:04:38.268Z,53.80
2017-10-16T12:07:06.295Z,52.97
2017-10-16T12:09:34.209Z,53.11
2017-10-16T12:12:02.197Z,53.22
2017-10-16T12:14:30.110Z,53.21
2017-10-16T12:16:58.430Z,53.35
2017-10-16T12:19:26.340Z,53.20
2017-10-16T12:21:54.342Z,53.19
2017-10-16T12:24:22.653Z,53.52
2017-10-16T12:26:50.652Z,53.54
2017-10-16T12:29:18.561Z,53.26
2017-10-16T12:31:46.483Z,53.41
2017-10-16T12:34:14.406Z,53.38
2017-10-16T12:36:42.420Z,53.27
2017-10-16T12:39:10.336Z,53.46
2017-10-16T12:41:38.252Z,53.81
2017-10-16T12:44:06.173Z,54.59
2017-10-16T12:46:34.977Z,54.00
2017-10-16T12:49:02.893Z,53.87
2017-10-16T12:51:30.911Z,54.21
2017-10-16T12:53:58.929Z,54.36
2017-10-16T12:56:26.856Z,54.05
2017-10-16T12:58:54.846Z,54.45
2017-10-16T13:01:22.768Z,54.29
2017-10-16T13:03:51.077Z,54.14
2017-10-16T13:06:19.096Z,54.12
2017-10-16T13:08:47.021Z,54.36
2017-10-16T13:11:14.974Z,54.41
2017-10-16T13:13:42.879Z,53.78
2017-10-16T13:16:10.794Z,54.12
2017-10-16T13:18:38.697Z,54.34
2017-10-16T13:21:06.640Z,54.69
2017-10-16T13:23:34.562Z,54.94
2017-10-16T13:26:03.357Z,54.49
2017-10-16T13:28:31.273Z,54.02
2017-10-16T13:30:59.197Z,54.18
2017-10-16T13:33:27.552Z,54.11
2017-10-16T13:35:55.474Z,53.23
2017-10-16T13:38:23.387Z,53.47
2017-10-16T13:40:51.313Z,53.23
2017-10-16T13:43:19.221Z,53.37
2017-10-16T13:45:47.139Z,53.73
2017-10-16T13:48:15.072Z,52.94
2017-10-16T13:50:42.993Z,52.91
2017-10-16T13:53:11.009Z,52.97
2017-10-16T13:55:38.982Z,53.32
2017-10-16T13:58:07.334Z,53.67
2017-10-16T14:00:35.331Z,53.28
2017-10-16T14:03:03.258Z,53.34
2017-10-16T14:05:31.181Z,53.60
2017-10-16T14:07:59.481Z,53.93
2017-10-16T14:10:27.507Z,54.39
2017-10-16T14:12:55.571Z,54.49
2017-10-16T14:15:23.576Z,54.85
2017-10-16T14:17:51.877Z,55.33
2017-10-16T14:20:19.897Z,55.53
2017-10-16T14:22:47.808Z,55.59
2017-10-16T14:25:15.732Z,55.31
2017-10-16T14:27:43.640Z,55.38
2017-10-16T14:30:11.564Z,55.72
2017-10-16T14:32:39.480Z,55.74
2017-10-16T14:35:07.397Z,55.64
2017-10-16T14:37:35.376Z,56.18
2017-10-16T14:40:03.276Z,55.92
2017-10-16T14:42:31.305Z,55.58
2017-10-16T14:44:59.208Z,55.67
2017-10-16T14:47:27.130Z,55.71
2017-10-16T14:49:55.040Z,55.97
2017-10-16T14:52:23.398Z,56.19
2017-10-16T14:54:51.306Z,56.58
2017-10-16T14:57:19.231Z,56.83
2017-10-16T14:59:47.145Z,57.24
2017-10-16T15:02:21.213Z,57.24
2017-10-16T15:04:49.113Z,57.75
2017-10-16T15:07:17.078Z,58.01
2017-10-16T15:09:44.988Z,58.30
2017-10-16T15:12:12.896Z,58.54
2017-10-16T15:14:41.222Z,58.70
2017-10-16T15:17:09.146Z,59.19
2017-10-16T15:19:37.455Z,59.50
2017-10-16T15:22:05.398Z,59.15
2017-10-16T15:24:33.705Z,59.20
2017-10-16T15:27:01.616Z,59.36
2017-10-16T15:29:29.523Z,59.34
2017-10-16T15:31:57.456Z,59.59
2017-10-16T15:34:25.369Z,60.25
2017-10-16T15:36:53.298Z,60.74
2017-10-16T15:39:21.617Z,60.78
2017-10-16T15:41:49.529Z,61.12
2017-10-16T15:44:17.444Z,61.66
2017-10-16T15:46:45.365Z,62.16
2017-10-16T15:49:13.272Z,62.50
2017-10-16T15:51:41.200Z,62.94
2017-10-16T15:54:09.532Z,63.10
2017-10-16T15:56:37.476Z,63.53
2017-10-16T15:59:05.387Z,64.36
2017-10-16T16:01:33.309Z,64.47
2017-10-16T16:04:01.611Z,64.83
2017-10-16T16:06:29.528Z,65.17
2017-10-16T16:08:57.440Z,65.77
2017-10-16T16:11:25.380Z,66.16
2017-10-16T16:13:53.692Z,66.69
2017-10-16T16:16:21.616Z,67.36
2017-10-16T16:18:49.917Z,67.90
2017-10-16T16:21:17.836Z,68.92
2017-10-16T16:23:45.750Z,69.60
2017-10-16T16:26:13.678Z,70.38
2017-10-16T16:28:41.585Z,70.98
2017-10-16T16:31:09.498Z,71.24
2017-10-16T16:33:37.407Z,71.25
2017-10-16T16:38:17.095Z,71.08
2017-10-16T16:40:45.128Z,71.27
2017-10-16T16:43:13.441Z,70.97
2017-10-16T16:45:41.383Z,71.35
2017-10-16T16:48:09.744Z,71.55
2017-10-16T16:53:11.912Z,71.92
2017-10-16T16:55:39.833Z,71.95
2017-10-16T16:58:07.741Z,72.08
2017-10-16T17:00:35.670Z,72.47
2017-10-16T17:03:03.584Z,72.81
2017-10-16T17:05:31.509Z,72.73
2017-10-16T17:07:59.428Z,73.24
2017-10-16T17:10:27.396Z,73.00
2017-10-16T17:12:55.309Z,73.11
2017-10-16T17:15:23.354Z,73.44
2017-10-16T17:17:51.657Z,73.51
2017-10-16T17:20:19.575Z,73.44
2017-10-16T17:22:47.510Z,73.66
2017-10-16T17:25:15.459Z,73.94
2017-10-16T17:27:43.376Z,74.07
2017-10-16T17:30:11.284Z,74.39
2017-10-16T17:32:39.601Z,74.47
2017-10-16T17:35:07.598Z,74.56
2017-10-16T17:37:35.512Z,74.60
2017-10-16T17:40:03.436Z,74.98
2017-10-16T17:42:31.407Z,74.88
2017-10-16T17:44:59.316Z,74.76
2017-10-16T17:47:27.254Z,75.01
2017-10-16T17:49:55.567Z,75.39
2017-10-16T17:52:23.492Z,75.30
2017-10-16T17:54:51.406Z,75.54
2017-10-16T17:57:19.324Z,75.87
2017-10-16T17:59:47.236Z,76.13
2017-10-16T18:02:15.186Z,76.16
2017-10-16T18:04:43.532Z,75.93
2017-10-16T18:07:11.467Z,76.41
2017-10-16T18:09:39.372Z,76.37
2017-10-16T18:12:07.301Z,76.45
2017-10-16T18:14:35.309Z,76.93
2017-10-16T18:17:03.273Z,77.33
2017-10-16T18:19:31.187Z,77.36
2017-10-16T18:21:59.211Z,77.50
2017-10-16T18:24:27.132Z,77.76
2017-10-16T18:26:55.072Z,77.90
2017-10-16T18:29:23.376Z,77.98
2017-10-16T18:31:51.300Z,78.31
2017-10-16T18:34:20.637Z,78.28
2017-10-16T18:36:48.582Z,78.74
2017-10-16T18:39:16.944Z,78.67
2017-10-16T18:41:44.963Z,78.88
2017-10-16T18:44:12.861Z,78.78
2017-10-16T18:46:40.787Z,79.60
2017-10-16T18:49:08.708Z,80.01
2017-10-16T18:51:36.680Z,80.14
2017-10-16T18:54:04.583Z,79.90
2017-10-16T18:56:32.973Z,79.76
2017-10-16T18:59:00.898Z,80.21
2017-10-16T19:01:28.928Z,80.13
2017-10-16T19:03:56.834Z,80.01
2017-10-16T19:06:24.804Z,80.19
2017-10-16T19:08:52.712Z,79.99
2017-10-16T19:11:20.628Z,80.43
2017-10-16T19:13:48.561Z,80.42
2017-10-16T19:16:16.493Z,80.45
2017-10-16T19:18:44.799Z,80.47
2017-10-16T19:21:12.821Z,80.80
2017-10-16T19:23:40.741Z,80.40
2017-10-16T19:26:08.649Z,80.92
2017-10-16T19:28:36.570Z,81.03
2017-10-16T19:31:04.481Z,81.15
2017-10-16T19:33:32.380Z,80.92
2017-10-16T19:36:00.691Z,80.64
2017-10-16T19:38:28.612Z,81.17
2017-10-16T19:40:56.952Z,81.04
2017-10-16T19:43:24.866Z,80.95
2017-10-16T19:45:53.203Z,81.10
2017-10-16T19:48:21.117Z,81.38
2017-10-16T19:50:49.052Z,81.64
2017-10-16T19:53:16.959Z,81.92
2017-10-16T19:55:45.317Z,81.56
2017-10-16T19:58:13.217Z,81.91
2017-10-16T20:00:41.132Z,81.81
2017-10-16T20:03:09.056Z,82.09
2017-10-16T20:05:36.996Z,82.32
2017-10-16T20:08:04.916Z,82.15
2017-10-16T20:10:32.877Z,82.27
2017-10-16T20:13:00.788Z,82.35
2017-10-16T20:15:28.720Z,82.53
2017-10-16T20:17:56.633Z,82.67
2017-10-16T20:20:24.560Z,82.91
2017-10-16T20:22:52.514Z,82.92
2017-10-16T20:25:20.425Z,83.32
2017-10-16T20:27:48.360Z,83.50
2017-10-16T20:30:16.288Z,83.14
2017-10-16T20:32:44.603Z,82.74
2017-10-16T20:35:12.572Z,82.44
2017-10-16T20:37:40.484Z,82.74
2017-10-16T20:40:08.420Z,82.46
2017-10-16T20:42:36.341Z,83.06
2017-10-16T20:45:04.665Z,83.32
2017-10-16T20:47:32.666Z,83.61
2017-10-16T20:50:00.604Z,83.08
2017-10-16T20:52:28.592Z,82.83
2017-10-16T20:54:56.503Z,83.30
2017-10-16T20:57:24.425Z,83.16
2017-10-16T20:59:52.384Z,82.97
2017-10-16T21:02:20.296Z,82.91
2017-10-16T21:04:48.633Z,82.93
2017-10-16T21:07:16.568Z,82.93
2017-10-16T21:09:44.591Z,83.44
2017-10-16T21:12:12.559Z,83.24
2017-10-16T21:14:40.501Z,83.40
2017-10-16T21:17:08.423Z,83.76
2017-10-16T21:19:36.766Z,83.79
2017-10-16T21:22:04.731Z,83.44
2017-10-16T21:24:32.673Z,83.40
2017-10-16T21:27:00.596Z,83.43
2017-10-16T21:29:28.911Z,83.84
2017-10-16T21:31:56.931Z,83.98
2017-10-16T21:34:24.849Z,84.04
2017-10-16T21:36:52.773Z,83.76
2017-10-16T21:39:21.161Z,83.98
2017-10-16T21:41:49.480Z,83.84
2017-10-16T21:44:17.396Z,84.04
2017-10-16T21:46:45.356Z,83.97
2017-10-16T21:49:13.279Z,83.75
2017-10-16T21:51:41.209Z,83.80
2017-10-16T21:54:09.572Z,84.12
2017-10-16T21:56:37.906Z,83.84
2017-10-16T21:59:05.812Z,84.06
2017-10-16T22:01:33.729Z,84.53
2017-10-16T22:04:01.631Z,84.86
2017-10-16T22:06:29.572Z,84.31
2017-10-16T22:08:57.484Z,84.27
2017-10-16T22:11:25.454Z,84.38
2017-10-16T22:13:53.429Z,84.08
2017-10-16T22:16:21.391Z,84.72
2017-10-16T22:18:49.357Z,85.00
2017-10-16T22:21:17.280Z,85.15
2017-10-16T22:23:45.194Z,85.08
2017-10-16T22:26:13.116Z,84.93
2017-10-16T22:28:41.034Z,85.02
2017-10-16T22:31:09.369Z,84.87
2017-10-16T22:33:37.441Z,84.79
2017-10-16T22:36:05.376Z,85.07
2017-10-16T22:38:33.321Z,85.01
2017-10-16T22:41:01.237Z,84.96
2017-10-16T22:43:29.202Z,85.36
2017-10-16T22:45:57.171Z,85.26
2017-10-16T22:48:25.097Z,85.46
2017-10-16T22:50:53.025Z,85.78
2017-10-16T22:53:21.039Z,85.59
2017-10-16T22:55:49.366Z,85.18
2017-10-16T22:58:17.297Z,85.06
2017-10-16T23:00:45.613Z,85.18
2017-10-16T23:03:13.541Z,85.36
2017-10-16T23:05:41.849Z,85.43
2017-10-16T23:08:09.757Z,85.13
2017-10-16T23:10:37.732Z,85.52
2017-10-16T23:13:05.640Z,85.47
2017-10-16T23:15:33.559Z,85.66
2017-10-16T23:18:02.348Z,85.67
2017-10-16T23:20:30.426Z,85.66
2017-10-16T23:22:58.390Z,86.14
2017-10-16T23:25:26.352Z,86.15
2017-10-16T23:27:54.448Z,85.86
2017-10-16T23:30:22.369Z,85.95
2017-10-16T23:32:50.307Z,86.29
2017-10-16T23:35:18.240Z,86.29
2017-10-16T23:37:46.193Z,86.43
2017-10-16T23:40:14.177Z,86.76
2017-10-16T23:42:42.084Z,86.56
2017-10-16T23:45:10.013Z,86.45
2017-10-16T23:47:37.924Z,86.61
2017-10-16T23:50:05.833Z,86.45
2017-10-16T23:52:33.822Z,86.49
2017-10-16T23:55:01.784Z,86.46
2017-10-16T23:57:29.702Z,86.23
2017-10-16T23:59:57.719Z,86.16
